Time;durP1;ratioP1;P1;durP2;ratioP2;P2;SDS_P1;SDS_P2;PMS_P1;PMS_P2;Temp;Humidity;BMP_temperature;BMP_pressure;BME280_temperature;BME280_humidity;BME280_pressure;Samples;Min_cycle;Max_cycle;Signal;HPM_P1;HPM_P2
2023/09/22 00:00:41;;;;;;;12.00;8.80;;;;;;;-128.00;-1.00;-1.00;105868;1251;1004761;-80
2023/09/22 00:03:28;;;;;;;17.50;9.60;;;;;;;-128.00;-1.00;-1.00;105837;1250;1062407;-80
2023/09/22 00:05:55;;;;;;;13.30;9.70;;;;;;;-128.00;-1.00;-1.00;105581;1250;1005064;-80
2023/09/22 00:08:21;;;;;;;14.20;9.10;;;;;;;-128.00;-1.00;-1.00;105699;1251;1004942;-80
2023/09/22 00:10:48;;;;;;;12.20;8.50;;;;;;;-128.00;-1.00;-1.00;105700;1251;1004308;-80
2023/09/22 00:13:14;;;;;;;20.90;11.60;;;;;;;-128.00;-1.00;-1.00;105729;1250;1004622;-80
2023/09/22 00:15:41;;;;;;;15.90;10.70;;;;;;;-128.00;-1.00;-1.00;105717;1250;1004256;-80
2023/09/22 00:18:07;;;;;;;19.00;11.30;;;;;;;-128.00;-1.00;-1.00;105714;1250;1003301;-79
2023/09/22 00:20:34;;;;;;;18.40;10.60;;;;;;;-128.00;-1.00;-1.00;105715;1250;1004152;-80
2023/09/22 00:23:00;;;;;;;18.00;10.50;;;;;;;-128.00;-1.00;-1.00;105706;1250;1004537;-80
2023/09/22 00:25:27;;;;;;;12.80;9.20;;;;;;;-128.00;-1.00;-1.00;105723;1254;1004382;-80
2023/09/22 00:27:54;;;;;;;16.30;12.00;;;;;;;-128.00;-1.00;-1.00;105716;1251;1004048;-81
2023/09/22 00:30:21;;;;;;;16.70;10.70;;;;;;;-128.00;-1.00;-1.00;105717;1251;1003970;-80
2023/09/22 00:32:47;;;;;;;16.20;9.60;;;;;;;-128.00;-1.00;-1.00;105677;1250;1004273;-80
2023/09/22 00:35:14;;;;;;;14.00;10.10;;;;;;;-128.00;-1.00;-1.00;105711;1250;1005260;-80
2023/09/22 00:37:40;;;;;;;13.70;9.60;;;;;;;-128.00;-1.00;-1.00;105589;1251;1004910;-80
2023/09/22 00:40:12;;;;;;;14.10;9.20;;;;;;;-128.00;-1.00;-1.00;105683;1251;1005454;-80
2023/09/22 00:42:39;;;;;;;14.80;10.40;;;;;;;-128.00;-1.00;-1.00;105601;1251;1058622;-80
2023/09/22 00:45:06;;;;;;;16.90;9.90;;;;;;;-128.00;-1.00;-1.00;105687;1250;1004027;-80
2023/09/22 00:47:32;;;;;;;15.10;9.90;;;;;;;-128.00;-1.00;-1.00;105706;1250;1003828;-80
2023/09/22 00:49:59;;;;;;;19.50;9.10;;;;;;;-128.00;-1.00;-1.00;105675;1252;1004236;-80
2023/09/22 00:52:25;;;;;;;16.90;10.40;;;;;;;-128.00;-1.00;-1.00;105849;1250;1004112;-80
2023/09/22 00:54:52;;;;;;;17.90;10.00;;;;;;;-128.00;-1.00;-1.00;105838;1251;1005111;-80
2023/09/22 00:57:18;;;;;;;20.50;11.90;;;;;;;-128.00;-1.00;-1.00;105630;1251;1004829;-80
2023/09/22 00:59:46;;;;;;;17.90;11.20;;;;;;;-128.00;-1.00;-1.00;105631;1251;1004413;-80
2023/09/22 01:02:12;;;;;;;23.00;11.60;;;;;;;-128.00;-1.00;-1.00;105864;1250;1005020;-80
2023/09/22 01:04:39;;;;;;;17.10;12.10;;;;;;;-128.00;-1.00;-1.00;105822;1250;1005164;-80
2023/09/22 01:07:06;;;;;;;13.80;10.80;;;;;;;-128.00;-1.00;-1.00;105618;1250;1004369;-81
2023/09/22 01:09:32;;;;;;;20.20;11.30;;;;;;;-128.00;-1.00;-1.00;105684;1251;1004677;-80
2023/09/22 01:11:59;;;;;;;14.20;10.80;;;;;;;-128.00;-1.00;-1.00;105543;1250;1004785;-80
2023/09/22 01:14:26;;;;;;;17.30;11.00;;;;;;;-128.00;-1.00;-1.00;105709;1250;1003940;-80
2023/09/22 01:16:52;;;;;;;14.40;10.30;;;;;;;-128.00;-1.00;-1.00;105729;1250;1004375;-80
2023/09/22 01:19:20;;;;;;;16.20;10.50;;;;;;;-128.00;-1.00;-1.00;105683;1251;1004252;-80
2023/09/22 01:21:46;;;;;;;15.10;10.20;;;;;;;-128.00;-1.00;-1.00;105650;1251;1004908;-80
2023/09/22 01:24:13;;;;;;;16.00;11.70;;;;;;;-128.00;-1.00;-1.00;105689;1250;1004080;-80
2023/09/22 01:26:39;;;;;;;14.90;10.40;;;;;;;-128.00;-1.00;-1.00;105712;1250;1004357;-80
2023/09/22 01:29:06;;;;;;;14.00;10.40;;;;;;;-128.00;-1.00;-1.00;105694;1250;1003816;-80
2023/09/22 01:31:33;;;;;;;13.50;10.60;;;;;;;-128.00;-1.00;-1.00;105693;1250;1004690;-81
2023/09/22 01:34:01;;;;;;;16.30;10.10;;;;;;;-128.00;-1.00;-1.00;105696;1251;1004215;-80
2023/09/22 01:36:28;;;;;;;18.80;11.80;;;;;;;-128.00;-1.00;-1.00;105723;1250;1003937;-80
2023/09/22 01:38:55;;;;;;;15.30;10.80;;;;;;;-128.00;-1.00;-1.00;105679;1250;1004479;-80
2023/09/22 01:41:22;;;;;;;15.40;10.80;;;;;;;-128.00;-1.00;-1.00;105702;1251;1004589;-80
2023/09/22 01:43:49;;;;;;;14.30;10.00;;;;;;;-128.00;-1.00;-1.00;105697;1250;1004165;-80
2023/09/22 01:46:16;;;;;;;18.00;10.20;;;;;;;-128.00;-1.00;-1.00;105668;1250;1003529;-80
2023/09/22 01:48:42;;;;;;;16.00;10.60;;;;;;;-128.00;-1.00;-1.00;105671;1252;1003502;-80
2023/09/22 01:51:08;;;;;;;18.10;11.00;;;;;;;-128.00;-1.00;-1.00;105823;1251;1004094;-80
2023/09/22 01:53:35;;;;;;;17.30;10.70;;;;;;;-128.00;-1.00;-1.00;105772;1251;1004259;-80
2023/09/22 01:56:01;;;;;;;15.40;11.30;;;;;;;-128.00;-1.00;-1.00;105609;1252;1004124;-80
2023/09/22 01:58:28;;;;;;;18.30;11.20;;;;;;;-128.00;-1.00;-1.00;105603;1250;1003286;-80
2023/09/22 02:00:55;;;;;;;13.40;9.50;;;;;;;-128.00;-1.00;-1.00;105773;1250;1003511;-80
2023/09/22 02:03:22;;;;;;;15.90;10.30;;;;;;;-128.00;-1.00;-1.00;105817;1250;1003476;-80
2023/09/22 02:05:48;;;;;;;18.40;10.20;;;;;;;-128.00;-1.00;-1.00;105726;1251;1003992;-80
2023/09/22 02:08:14;;;;;;;22.70;11.40;;;;;;;-128.00;-1.00;-1.00;105741;1251;1005131;-80
2023/09/22 02:10:41;;;;;;;15.60;10.70;;;;;;;-128.00;-1.00;-1.00;105745;1250;1003754;-80
2023/09/22 02:13:09;;;;;;;22.10;10.40;;;;;;;-128.00;-1.00;-1.00;105713;1250;1003439;-80
2023/09/22 02:15:36;;;;;;;15.90;9.60;;;;;;;-128.00;-1.00;-1.00;105701;1251;1006282;-80
2023/09/22 02:18:02;;;;;;;15.20;8.70;;;;;;;-128.00;-1.00;-1.00;105719;1250;1004826;-80
2023/09/22 02:20:29;;;;;;;16.20;10.20;;;;;;;-128.00;-1.00;-1.00;105728;1250;1003553;-80
2023/09/22 02:22:56;;;;;;;15.20;9.20;;;;;;;-128.00;-1.00;-1.00;105712;1251;1004327;-80
2023/09/22 02:25:23;;;;;;;13.90;9.30;;;;;;;-128.00;-1.00;-1.00;105722;1250;1004799;-80
2023/09/22 02:27:52;;;;;;;13.50;9.10;;;;;;;-128.00;-1.00;-1.00;105713;1251;1004404;-80
2023/09/22 02:30:19;;;;;;;13.50;8.70;;;;;;;-128.00;-1.00;-1.00;105742;1250;1062821;-80
2023/09/22 02:32:48;;;;;;;19.20;11.80;;;;;;;-128.00;-1.00;-1.00;105699;1250;1004008;-81
2023/09/22 02:35:18;;;;;;;16.50;10.00;;;;;;;-128.00;-1.00;-1.00;105683;1250;1059968;-80
2023/09/22 02:37:45;;;;;;;19.20;9.90;;;;;;;-128.00;-1.00;-1.00;105698;1250;1045870;-80
2023/09/22 02:40:14;;;;;;;11.50;9.00;;;;;;;-128.00;-1.00;-1.00;105703;1250;1004529;-80
2023/09/22 02:42:41;;;;;;;10.80;8.60;;;;;;;-128.00;-1.00;-1.00;105689;1251;1062505;-80
2023/09/22 02:45:11;;;;;;;13.80;8.70;;;;;;;-128.00;-1.00;-1.00;105691;1251;1004200;-80
2023/09/22 02:47:38;;;;;;;12.60;8.90;;;;;;;-128.00;-1.00;-1.00;105676;1250;1058425;-79
2023/09/22 02:50:08;;;;;;;10.50;8.00;;;;;;;-128.00;-1.00;-1.00;105670;1250;1004781;-80
2023/09/22 02:52:34;;;;;;;13.60;8.20;;;;;;;-128.00;-1.00;-1.00;105747;1250;1047295;-80
2023/09/22 02:55:03;;;;;;;13.00;9.20;;;;;;;-128.00;-1.00;-1.00;105691;1250;1005041;-80
2023/09/22 02:57:29;;;;;;;13.50;8.60;;;;;;;-128.00;-1.00;-1.00;105683;1251;1058524;-80
2023/09/22 02:59:56;;;;;;;10.40;8.10;;;;;;;-128.00;-1.00;-1.00;105664;1251;1003647;-80
2023/09/22 03:02:22;;;;;;;10.30;8.20;;;;;;;-128.00;-1.00;-1.00;105566;1250;1004669;-79
2023/09/22 03:04:49;;;;;;;16.50;10.80;;;;;;;-128.00;-1.00;-1.00;105673;1251;1003741;-80
2023/09/22 03:07:16;;;;;;;14.70;9.90;;;;;;;-128.00;-1.00;-1.00;105609;1251;1003740;-80
2023/09/22 03:09:43;;;;;;;18.70;8.60;;;;;;;-128.00;-1.00;-1.00;105337;1251;1003755;-80
2023/09/22 03:12:09;;;;;;;18.60;10.30;;;;;;;-128.00;-1.00;-1.00;105623;1251;1004751;-80
2023/09/22 03:14:36;;;;;;;17.30;10.80;;;;;;;-128.00;-1.00;-1.00;105603;1251;1004305;-80
2023/09/22 03:17:03;;;;;;;15.20;10.00;;;;;;;-128.00;-1.00;-1.00;105630;1251;1003645;-80
2023/09/22 03:19:29;;;;;;;16.00;9.40;;;;;;;-128.00;-1.00;-1.00;105567;1251;1005137;-80
2023/09/22 03:21:56;;;;;;;18.10;9.90;;;;;;;-128.00;-1.00;-1.00;105582;1251;1003845;-80
2023/09/22 03:24:22;;;;;;;15.50;9.80;;;;;;;-128.00;-1.00;-1.00;105634;1251;1004285;-80
2023/09/22 03:26:49;;;;;;;20.30;8.90;;;;;;;-128.00;-1.00;-1.00;105582;1251;1003785;-81
2023/09/22 03:29:15;;;;;;;16.40;8.80;;;;;;;-128.00;-1.00;-1.00;105422;1253;1004698;-80
2023/09/22 03:31:42;;;;;;;16.20;9.70;;;;;;;-128.00;-1.00;-1.00;105597;1251;1004395;-80
2023/09/22 03:34:10;;;;;;;20.70;10.40;;;;;;;-128.00;-1.00;-1.00;105454;1253;1005043;-80
2023/09/22 03:36:37;;;;;;;21.30;9.30;;;;;;;-128.00;-1.00;-1.00;105255;1253;1005110;-80
2023/09/22 03:39:08;;;;;;;12.50;8.30;;;;;;;-128.00;-1.00;-1.00;105596;1251;1003479;-80
2023/09/22 03:41:35;;;;;;;15.20;9.40;;;;;;;-128.00;-1.00;-1.00;105624;1251;1046425;-80
2023/09/22 03:44:02;;;;;;;19.50;9.70;;;;;;;-128.00;-1.00;-1.00;105557;1251;1004392;-80
2023/09/22 03:46:29;;;;;;;13.90;10.30;;;;;;;-128.00;-1.00;-1.00;105534;1251;1004973;-80
2023/09/22 03:48:56;;;;;;;15.60;11.90;;;;;;;-128.00;-1.00;-1.00;105631;1251;1004444;-80
2023/09/22 03:51:22;;;;;;;15.20;10.60;;;;;;;-128.00;-1.00;-1.00;105693;1251;1003756;-79
2023/09/22 03:53:49;;;;;;;17.40;10.20;;;;;;;-128.00;-1.00;-1.00;105711;1250;1004801;-79
2023/09/22 03:56:15;;;;;;;13.00;9.20;;;;;;;-128.00;-1.00;-1.00;105688;1251;1004008;-80
2023/09/22 03:58:42;;;;;;;12.80;8.80;;;;;;;-128.00;-1.00;-1.00;105662;1251;1004336;-80
2023/09/22 04:01:08;;;;;;;20.10;10.20;;;;;;;-128.00;-1.00;-1.00;105682;1250;1003724;-80
2023/09/22 04:03:36;;;;;;;14.40;9.40;;;;;;;-128.00;-1.00;-1.00;105688;1250;1003826;-80
2023/09/22 04:06:04;;;;;;;10.40;9.00;;;;;;;-128.00;-1.00;-1.00;105563;1251;1003812;-80
2023/09/22 04:08:31;;;;;;;11.70;9.70;;;;;;;-128.00;-1.00;-1.00;105552;1251;1005156;-80
2023/09/22 04:10:57;;;;;;;13.00;9.50;;;;;;;-128.00;-1.00;-1.00;105408;1253;1003624;-80
2023/09/22 04:13:24;;;;;;;22.20;11.40;;;;;;;-128.00;-1.00;-1.00;105527;1251;1004511;-80
2023/09/22 04:16:00;;;;;;;16.70;12.50;;;;;;;-128.00;-1.00;-1.00;105538;1251;1003569;-80
2023/09/22 04:18:29;;;;;;;15.40;11.10;;;;;;;-128.00;-1.00;-1.00;105571;1251;1047769;-80
2023/09/22 04:20:57;;;;;;;18.10;11.60;;;;;;;-128.00;-1.00;-1.00;105607;1251;1061598;-81
2023/09/22 04:23:27;;;;;;;16.30;10.70;;;;;;;-128.00;-1.00;-1.00;105587;1251;1005058;-80
2023/09/22 04:25:54;;;;;;;20.20;12.30;;;;;;;-128.00;-1.00;-1.00;105584;1251;1058957;-80
2023/09/22 04:28:24;;;;;;;18.80;10.90;;;;;;;-128.00;-1.00;-1.00;105418;1253;1003903;-80
2023/09/22 04:30:50;;;;;;;23.70;14.70;;;;;;;-128.00;-1.00;-1.00;105559;1251;1046617;-80
2023/09/22 04:33:17;;;;;;;17.60;13.40;;;;;;;-128.00;-1.00;-1.00;105559;1251;1004676;-80
2023/09/22 04:35:44;;;;;;;15.60;13.00;;;;;;;-128.00;-1.00;-1.00;105555;1251;1004855;-80
2023/09/22 04:38:10;;;;;;;19.10;12.10;;;;;;;-128.00;-1.00;-1.00;105546;1251;1004348;-80
2023/09/22 04:40:38;;;;;;;13.00;11.00;;;;;;;-128.00;-1.00;-1.00;105530;1251;1004735;-80
2023/09/22 04:43:07;;;;;;;13.60;10.00;;;;;;;-128.00;-1.00;-1.00;105293;1253;1004601;-80
2023/09/22 04:45:39;;;;;;;16.30;11.50;;;;;;;-128.00;-1.00;-1.00;105563;1256;1062461;-80
2023/09/22 04:48:10;;;;;;;13.10;9.70;;;;;;;-128.00;-1.00;-1.00;105547;1251;1058313;-80
2023/09/22 04:50:37;;;;;;;17.70;12.00;;;;;;;-128.00;-1.00;-1.00;105459;1251;1058410;-80
2023/09/22 04:53:04;;;;;;;17.70;11.30;;;;;;;-128.00;-1.00;-1.00;105440;1256;1005280;-80
2023/09/22 04:55:35;;;;;;;15.70;10.70;;;;;;;-128.00;-1.00;-1.00;105671;1254;1004357;-79
2023/09/22 04:58:02;;;;;;;16.50;12.80;;;;;;;-128.00;-1.00;-1.00;105553;1251;1062080;-80
2023/09/22 05:00:33;;;;;;;24.90;11.70;;;;;;;-128.00;-1.00;-1.00;105474;1252;1057461;-80
2023/09/22 05:03:00;;;;;;;13.90;12.40;;;;;;;-128.00;-1.00;-1.00;105551;1255;1060245;-80
2023/09/22 05:05:28;;;;;;;17.60;10.10;;;;;;;-128.00;-1.00;-1.00;105592;1250;1003928;-80
2023/09/22 05:07:55;;;;;;;15.20;10.70;;;;;;;-128.00;-1.00;-1.00;105602;1250;1004115;-80
2023/09/22 05:10:21;;;;;;;16.00;10.30;;;;;;;-128.00;-1.00;-1.00;105608;1250;1004751;-81
2023/09/22 05:12:51;;;;;;;15.10;9.90;;;;;;;-128.00;-1.00;-1.00;105629;1250;1004363;-80
2023/09/22 05:15:18;;;;;;;20.00;10.90;;;;;;;-128.00;-1.00;-1.00;105646;1251;1059579;-80
2023/09/22 05:17:44;;;;;;;17.20;10.40;;;;;;;-128.00;-1.00;-1.00;105572;1251;1003769;-80
2023/09/22 05:20:14;;;;;;;17.70;10.80;;;;;;;-128.00;-1.00;-1.00;105703;1250;1004484;-80
2023/09/22 05:22:41;;;;;;;15.10;10.10;;;;;;;-128.00;-1.00;-1.00;105581;1254;1063690;-80
2023/09/22 05:25:08;;;;;;;17.80;10.90;;;;;;;-128.00;-1.00;-1.00;105572;1251;1004306;-80
2023/09/22 05:27:35;;;;;;;14.40;11.40;;;;;;;-128.00;-1.00;-1.00;105622;1251;1004032;-80
2023/09/22 05:30:03;;;;;;;20.10;10.90;;;;;;;-128.00;-1.00;-1.00;105660;1251;1004865;-80
2023/09/22 05:32:30;;;;;;;12.50;9.60;;;;;;;-128.00;-1.00;-1.00;105630;1250;1047742;-80
2023/09/22 05:34:56;;;;;;;15.20;9.40;;;;;;;-128.00;-1.00;-1.00;105595;1250;1004686;-80
2023/09/22 05:37:23;;;;;;;14.50;9.70;;;;;;;-128.00;-1.00;-1.00;105604;1250;1004639;-80
2023/09/22 05:39:51;;;;;;;15.90;9.90;;;;;;;-128.00;-1.00;-1.00;105567;1251;1004497;-80
2023/09/22 05:42:17;;;;;;;13.00;8.50;;;;;;;-128.00;-1.00;-1.00;105590;1251;1004279;-79
2023/09/22 05:44:44;;;;;;;14.90;10.10;;;;;;;-128.00;-1.00;-1.00;105636;1251;1003839;-80
2023/09/22 05:47:12;;;;;;;14.50;9.50;;;;;;;-128.00;-1.00;-1.00;105481;1251;1004980;-80
2023/09/22 05:49:39;;;;;;;14.70;11.30;;;;;;;-128.00;-1.00;-1.00;105634;1251;1058461;-80
2023/09/22 05:52:06;;;;;;;14.30;11.20;;;;;;;-128.00;-1.00;-1.00;105620;1251;1004484;-81
2023/09/22 05:54:32;;;;;;;18.20;10.80;;;;;;;-128.00;-1.00;-1.00;105510;1251;1004700;-80
2023/09/22 05:56:58;;;;;;;16.10;9.40;;;;;;;-128.00;-1.00;-1.00;105711;1251;1004116;-80
2023/09/22 05:59:27;;;;;;;14.70;9.50;;;;;;;-128.00;-1.00;-1.00;105706;1250;1004387;-80
2023/09/22 06:01:55;;;;;;;15.20;10.10;;;;;;;-128.00;-1.00;-1.00;105640;1254;1059863;-80
2023/09/22 06:04:22;;;;;;;13.10;11.80;;;;;;;-128.00;-1.00;-1.00;105604;1251;1005103;-80
2023/09/22 06:06:50;;;;;;;19.00;14.20;;;;;;;-128.00;-1.00;-1.00;105563;1254;1004484;-80
2023/09/22 06:09:19;;;;;;;18.90;10.50;;;;;;;-128.00;-1.00;-1.00;105565;1251;1046554;-80
2023/09/22 06:11:46;;;;;;;14.50;7.60;;;;;;;-128.00;-1.00;-1.00;105615;1251;1062382;-80
2023/09/22 06:14:13;;;;;;;8.50;6.20;;;;;;;-128.00;-1.00;-1.00;105588;1250;1005078;-80
2023/09/22 06:16:41;;;;;;;13.00;6.40;;;;;;;-128.00;-1.00;-1.00;105541;1251;1004316;-80
2023/09/22 06:19:10;;;;;;;11.20;4.80;;;;;;;-128.00;-1.00;-1.00;105393;1256;1004361;-80
2023/09/22 06:21:37;;;;;;;8.40;4.00;;;;;;;-128.00;-1.00;-1.00;105663;1251;1046641;-80
2023/09/22 06:24:06;;;;;;;10.20;4.00;;;;;;;-128.00;-1.00;-1.00;105586;1251;1004768;-80
2023/09/22 06:26:33;;;;;;;9.50;4.20;;;;;;;-128.00;-1.00;-1.00;105634;1251;1004776;-80
2023/09/22 06:28:59;;;;;;;8.60;3.70;;;;;;;-128.00;-1.00;-1.00;105612;1250;1004414;-80
2023/09/22 06:31:26;;;;;;;5.80;3.60;;;;;;;-128.00;-1.00;-1.00;105477;1251;1005167;-81
2023/09/22 06:33:53;;;;;;;8.70;3.40;;;;;;;-128.00;-1.00;-1.00;105534;1251;1005386;-80
2023/09/22 06:36:19;;;;;;;10.30;3.50;;;;;;;-128.00;-1.00;-1.00;105599;1251;1004267;-80
2023/09/22 06:38:46;;;;;;;7.30;3.90;;;;;;;-128.00;-1.00;-1.00;105612;1251;1005222;-80
2023/09/22 06:41:17;;;;;;;10.00;4.00;;;;;;;-128.00;-1.00;-1.00;105481;1256;1006167;-81
2023/09/22 06:43:46;;;;;;;6.30;3.50;;;;;;;-128.00;-1.00;-1.00;105553;1251;1045803;-81
2023/09/22 06:46:14;;;;;;;;;;;;;;;-128.00;-1.00;-1.00;105677;1250;1047503;-81
2023/09/22 06:48:40;;;;;;;6.90;2.80;;;;;;;-128.00;-1.00;-1.00;105684;1250;1004233;-81
2023/09/22 06:51:11;;;;;;;10.60;3.10;;;;;;;-128.00;-1.00;-1.00;105646;1254;1004262;-82
2023/09/22 06:53:38;;;;;;;8.20;3.50;;;;;;;-128.00;-1.00;-1.00;105598;1251;1060292;-81
2023/09/22 06:56:11;;;;;;;5.70;2.30;;;;;;;-128.00;-1.00;-1.00;105749;1255;1004305;-82
2023/09/22 06:58:40;;;;;;;8.20;3.10;;;;;;;-128.00;-1.00;-1.00;105774;1251;1047402;-81
2023/09/22 07:01:10;;;;;;;7.30;2.70;;;;;;;-128.00;-1.00;-1.00;105798;1250;1004522;-81
2023/09/22 07:03:38;;;;;;;9.90;3.00;;;;;;;-128.00;-1.00;-1.00;105791;1254;1057216;-81
2023/09/22 07:06:10;;;;;;;11.40;5.30;;;;;;;-128.00;-1.00;-1.00;105702;1251;1003701;-81
2023/09/22 07:08:37;;;;;;;9.80;3.60;;;;;;;-128.00;-1.00;-1.00;105736;1251;1045853;-81
2023/09/22 07:11:08;;;;;;;12.00;4.70;;;;;;;-128.00;-1.00;-1.00;105710;1251;1004755;-81
2023/09/22 07:13:35;;;;;;;7.30;2.30;;;;;;;-128.00;-1.00;-1.00;105592;1251;1062769;-81
2023/09/22 07:16:01;;;;;;;6.20;2.60;;;;;;;-128.00;-1.00;-1.00;105625;1251;1004629;-81
2023/09/22 07:18:28;;;;;;;7.20;2.40;;;;;;;-128.00;-1.00;-1.00;105653;1251;1004177;-81
2023/09/22 07:20:54;;;;;;;5.10;1.80;;;;;;;-128.00;-1.00;-1.00;105716;1251;1005059;-82
2023/09/22 07:23:21;;;;;;;5.10;1.90;;;;;;;-128.00;-1.00;-1.00;105690;1251;1004034;-82
2023/09/22 07:26:01;;;;;;;4.20;1.70;;;;;;;-128.00;-1.00;-1.00;105682;1250;1004382;-81
2023/09/22 07:28:28;;;;;;;4.00;2.00;;;;;;;-128.00;-1.00;-1.00;105628;1251;1057501;-81
2023/09/22 07:30:54;;;;;;;7.10;2.70;;;;;;;-128.00;-1.00;-1.00;105610;1251;1003485;-81
2023/09/22 07:33:21;;;;;;;9.00;3.10;;;;;;;-128.00;-1.00;-1.00;105542;1251;1003863;-81
2023/09/22 07:35:51;;;;;;;4.20;2.10;;;;;;;-128.00;-1.00;-1.00;105620;1250;1004307;-81
2023/09/22 07:38:18;;;;;;;7.10;2.10;;;;;;;-128.00;-1.00;-1.00;105462;1251;1062804;-81
2023/09/22 07:40:44;;;;;;;5.30;2.70;;;;;;;-128.00;-1.00;-1.00;105689;1251;1004423;-82
2023/09/22 07:43:11;;;;;;;3.90;1.90;;;;;;;-128.00;-1.00;-1.00;105691;1251;1004494;-81
2023/09/22 07:45:39;;;;;;;4.20;2.10;;;;;;;-128.00;-1.00;-1.00;105656;1251;1003876;-81
2023/09/22 07:48:05;;;;;;;6.60;2.40;;;;;;;-128.00;-1.00;-1.00;105567;1251;1004799;-81
2023/09/22 07:50:35;;;;;;;8.70;2.40;;;;;;;-128.00;-1.00;-1.00;105661;1250;1004748;-82
2023/09/22 07:53:02;;;;;;;5.00;1.90;;;;;;;-128.00;-1.00;-1.00;105688;1250;1057894;-81
2023/09/22 07:55:29;;;;;;;7.60;2.30;;;;;;;-128.00;-1.00;-1.00;105627;1251;1004690;-82
2023/09/22 07:57:56;;;;;;;3.60;1.90;;;;;;;-128.00;-1.00;-1.00;105694;1251;1004453;-82
2023/09/22 08:00:26;;;;;;;5.20;1.90;;;;;;;-128.00;-1.00;-1.00;105702;1254;1004475;-82
2023/09/22 08:02:52;;;;;;;4.70;2.10;;;;;;;-128.00;-1.00;-1.00;105566;1250;1063338;-83
2023/09/22 08:05:20;;;;;;;6.50;2.20;;;;;;;-128.00;-1.00;-1.00;105640;1250;1004149;-82
2023/09/22 08:07:49;;;;;;;5.30;2.50;;;;;;;-128.00;-1.00;-1.00;105654;1251;1004834;-82
2023/09/22 08:10:17;;;;;;;4.00;2.20;;;;;;;-128.00;-1.00;-1.00;105487;1251;1044569;-82
2023/09/22 08:12:44;;;;;;;8.70;2.80;;;;;;;-128.00;-1.00;-1.00;105540;1251;1005452;-82
2023/09/22 08:15:10;;;;;;;4.90;1.90;;;;;;;-128.00;-1.00;-1.00;105600;1251;1004071;-82
2023/09/22 08:17:37;;;;;;;7.10;2.30;;;;;;;-128.00;-1.00;-1.00;105620;1251;1004452;-82
2023/09/22 08:20:07;;;;;;;6.20;1.90;;;;;;;-128.00;-1.00;-1.00;105686;1251;1004799;-82
2023/09/22 08:22:34;;;;;;;5.30;2.00;;;;;;;-128.00;-1.00;-1.00;105636;1251;1046127;-82
2023/09/22 08:25:02;;;;;;;9.80;2.60;;;;;;;-128.00;-1.00;-1.00;105697;1250;1004531;-83
2023/09/22 08:27:29;;;;;;;8.70;2.50;;;;;;;-128.00;-1.00;-1.00;105702;1251;1004505;-81
2023/09/22 08:29:56;;;;;;;7.20;2.90;;;;;;;-128.00;-1.00;-1.00;105751;1251;1004648;-81
2023/09/22 08:32:23;;;;;;;4.90;1.70;;;;;;;-128.00;-1.00;-1.00;105596;1251;1004051;-81
2023/09/22 08:34:49;;;;;;;5.50;1.20;;;;;;;-128.00;-1.00;-1.00;105642;1251;1004600;-81
2023/09/22 08:37:16;;;;;;;9.10;2.10;;;;;;;-128.00;-1.00;-1.00;105696;1251;1004539;-81
2023/09/22 08:39:44;;;;;;;13.20;4.70;;;;;;;-128.00;-1.00;-1.00;105638;1250;1004312;-81
2023/09/22 08:42:10;;;;;;;6.20;2.20;;;;;;;-128.00;-1.00;-1.00;105567;1251;1003706;-81
2023/09/22 08:44:37;;;;;;;4.40;2.20;;;;;;;-128.00;-1.00;-1.00;105494;1251;1004012;-81
2023/09/22 08:47:03;;;;;;;8.60;2.50;;;;;;;-128.00;-1.00;-1.00;105547;1251;1004299;-81
2023/09/22 08:49:30;;;;;;;11.00;2.20;;;;;;;-128.00;-1.00;-1.00;105471;1253;1003782;-81
2023/09/22 08:51:56;;;;;;;6.30;2.30;;;;;;;-128.00;-1.00;-1.00;105649;1250;1003490;-81
2023/09/22 08:54:23;;;;;;;8.80;2.60;;;;;;;-128.00;-1.00;-1.00;105653;1251;1004472;-81
2023/09/22 08:56:51;;;;;;;3.40;2.10;;;;;;;-128.00;-1.00;-1.00;105573;1251;1004809;-81
2023/09/22 08:59:17;;;;;;;7.10;2.70;;;;;;;-128.00;-1.00;-1.00;105646;1251;1004286;-81
2023/09/22 09:01:44;;;;;;;6.00;2.20;;;;;;;-128.00;-1.00;-1.00;105650;1250;1005172;-81
2023/09/22 09:04:31;;;;;;;6.30;2.80;;;;;;;-128.00;-1.00;-1.00;105665;1250;1004993;-81
2023/09/22 09:06:57;;;;;;;8.60;3.80;;;;;;;-128.00;-1.00;-1.00;105597;1251;1059202;-81
2023/09/22 09:09:24;;;;;;;6.30;2.50;;;;;;;-128.00;-1.00;-1.00;105595;1250;1004373;-82
2023/09/22 09:12:00;;;;;;;6.00;2.50;;;;;;;-128.00;-1.00;-1.00;105651;1251;1004303;-82
2023/09/22 09:14:29;;;;;;;5.10;2.40;;;;;;;-128.00;-1.00;-1.00;105527;1254;1046557;-81
2023/09/22 09:16:56;;;;;;;10.30;2.50;;;;;;;-128.00;-1.00;-1.00;105662;1250;1063352;-82
2023/09/22 09:19:24;;;;;;;8.50;5.20;;;;;;;-128.00;-1.00;-1.00;105619;1250;1004258;-81
2023/09/22 09:22:05;;;;;;;9.20;3.20;;;;;;;-128.00;-1.00;-1.00;105774;1251;1005503;-81
2023/09/22 09:24:32;;;;;;;4.60;2.00;;;;;;;-128.00;-1.00;-1.00;105713;1251;1045337;-81
2023/09/22 09:26:59;;;;;;;7.10;2.30;;;;;;;-128.00;-1.00;-1.00;105783;1251;1003812;-81
2023/09/22 09:29:27;;;;;;;4.30;1.80;;;;;;;-128.00;-1.00;-1.00;105864;1250;1004463;-81
2023/09/22 09:31:55;;;;;;;9.00;2.50;;;;;;;-128.00;-1.00;-1.00;105634;1250;1003560;-81
2023/09/22 09:34:36;;;;;;;8.60;2.80;;;;;;;-128.00;-1.00;-1.00;105764;1250;1004336;-82
2023/09/22 09:37:13;;;;;;;4.20;2.30;;;;;;;-128.00;-1.00;-1.00;105566;1250;1046052;-81
2023/09/22 09:39:52;;;;;;;11.30;2.80;;;;;;;-128.00;-1.00;-1.00;105715;1250;1047573;-81
2023/09/22 09:42:23;;;;;;;7.40;2.50;;;;;;;-128.00;-1.00;-1.00;105627;1251;1062404;-81
2023/09/22 09:44:51;;;;;;;8.10;2.90;;;;;;;-128.00;-1.00;-1.00;105463;1250;1057930;-81
2023/09/22 09:47:25;;;;;;;6.10;2.40;;;;;;;-128.00;-1.00;-1.00;105628;1251;1004060;-81
2023/09/22 09:49:55;;;;;;;7.40;2.10;;;;;;;-128.00;-1.00;-1.00;105591;1251;1044271;-81
2023/09/22 09:52:26;;;;;;;7.10;2.70;;;;;;;-128.00;-1.00;-1.00;105478;1251;1048215;-81
2023/09/22 09:55:14;;;;;;;10.40;2.00;;;;;;;-128.00;-1.00;-1.00;105684;1250;1060958;-81
2023/09/22 09:57:43;;;;;;;7.60;2.60;;;;;;;-128.00;-1.00;-1.00;105730;1251;1057261;-81
2023/09/22 10:00:18;;;;;;;4.70;2.20;;;;;;;-128.00;-1.00;-1.00;105684;1250;1003214;-81
2023/09/22 10:02:46;;;;;;;7.10;2.40;;;;;;;-128.00;-1.00;-1.00;105653;1250;1045026;-81
2023/09/22 10:05:20;;;;;;;6.90;2.50;;;;;;;-128.00;-1.00;-1.00;105694;1250;1004011;-81
2023/09/22 10:07:51;;;;;;;7.00;2.70;;;;;;;-128.00;-1.00;-1.00;105767;1250;1062715;-81
2023/09/22 10:10:20;;;;;;;3.70;2.70;;;;;;;-128.00;-1.00;-1.00;105587;1250;1058580;-81
2023/09/22 10:12:47;;;;;;;10.90;2.50;;;;;;;-128.00;-1.00;-1.00;105544;1251;1058574;-81
2023/09/22 10:15:13;;;;;;;7.30;2.60;;;;;;;-128.00;-1.00;-1.00;105677;1250;1003627;-81
2023/09/22 10:17:40;;;;;;;5.20;2.40;;;;;;;-128.00;-1.00;-1.00;105714;1249;1005024;-81
2023/09/22 10:20:11;;;;;;;7.70;2.60;;;;;;;-128.00;-1.00;-1.00;105648;1250;1004427;-81
2023/09/22 10:22:38;;;;;;;7.90;2.80;;;;;;;-128.00;-1.00;-1.00;105777;1251;1058173;-81
2023/09/22 10:25:14;;;;;;;11.10;4.10;;;;;;;-128.00;-1.00;-1.00;105654;1250;1003888;-81
2023/09/22 10:27:57;;;;;;;4.90;2.20;;;;;;;-128.00;-1.00;-1.00;105678;1250;1045207;-81
2023/09/22 10:30:30;;;;;;;4.60;1.70;;;;;;;-128.00;-1.00;-1.00;105525;1251;1046993;-82
2023/09/22 10:33:23;;;;;;;4.90;1.60;;;;;;;-128.00;-1.00;-1.00;105561;1252;1063063;-81
2023/09/22 10:35:50;;;;;;;5.20;2.30;;;;;;;-128.00;-1.00;-1.00;105740;1250;1059054;-81
2023/09/22 10:38:19;;;;;;;4.20;2.30;;;;;;;-128.00;-1.00;-1.00;105595;1250;1003488;-81
2023/09/22 10:41:03;;;;;;;5.00;1.80;;;;;;;-128.00;-1.00;-1.00;105446;1251;1045024;-81
2023/09/22 10:43:30;;;;;;;4.30;1.90;;;;;;;-128.00;-1.00;-1.00;105649;1251;1047857;-81
2023/09/22 10:45:56;;;;;;;3.40;1.60;;;;;;;-128.00;-1.00;-1.00;105499;1252;1004482;-81
2023/09/22 10:48:23;;;;;;;6.00;2.50;;;;;;;-128.00;-1.00;-1.00;105778;1251;1004688;-81
2023/09/22 10:50:50;;;;;;;5.40;2.10;;;;;;;-128.00;-1.00;-1.00;105757;1250;1004295;-81
2023/09/22 10:53:16;;;;;;;15.60;2.30;;;;;;;-128.00;-1.00;-1.00;105676;1250;1004365;-81
2023/09/22 10:55:46;;;;;;;4.90;2.30;;;;;;;-128.00;-1.00;-1.00;105717;1250;1004371;-81
2023/09/22 10:58:18;;;;;;;6.70;1.90;;;;;;;-128.00;-1.00;-1.00;105667;1251;1062568;-81
2023/09/22 11:01:00;;;;;;;6.30;2.40;;;;;;;-128.00;-1.00;-1.00;105687;1250;1057681;-81
2023/09/22 11:03:27;;;;;;;7.80;2.80;;;;;;;-128.00;-1.00;-1.00;105698;1250;1058655;-81
2023/09/22 11:06:00;;;;;;;4.10;1.80;;;;;;;-128.00;-1.00;-1.00;105660;1251;1005444;-81
2023/09/22 11:08:27;;;;;;;3.30;1.30;;;;;;;-128.00;-1.00;-1.00;105747;1250;1046819;-81
2023/09/22 11:10:55;;;;;;;5.70;2.00;;;;;;;-128.00;-1.00;-1.00;105757;1250;1004593;-81
2023/09/22 11:13:24;;;;;;;8.20;2.10;;;;;;;-128.00;-1.00;-1.00;105791;1250;1003886;-81